Friday, January 19, 2018, 1:47 AM GMT
Back to Local

CWPE, Point Lepreau, N. B.

Location: , , Canada Lat: 45.067
Local Time: 1:47 AM GMT ( 1:47 GMT) Lon: -66.467
Time Zone: GMT Elev: 3 ft

Show me the last for .
Show Decoded

2018-01-19 01:00 METAR CWPE 190100Z AUTO 33006KT M06/M07 RMK AO1 SOG 18 0004 SLP098 T10601069 =
2018-01-19 00:00 METAR CWPE 190000Z AUTO 35003KT M08/M08 RMK AO1 SOG 17 3008 SLP102 T10771080 =
2018-01-18 23:00 METAR CWPE 182300Z AUTO 34004KT M07/M07 RMK AO1 SOG 18 3004 SLP098 T10681073 =
2018-01-18 22:00 METAR CWPE 182200Z AUTO 33003KT M05/M06 RMK AO1 SOG 18 1001 SLP094 T10511064 =
2018-01-18 21:00 METAR CWPE 182100Z AUTO 33003KT M04/M05 RMK AO1 SOG 18 6005 SLP094 T10351045 =
2018-01-18 20:00 METAR CWPE 182000Z AUTO 30003KT M02/M05 RMK AO1 SOG 18 5007 SLP094 T10181053 =
2018-01-18 19:00 METAR CWPE 181900Z AUTO 30004KT M02/M05 RMK AO1 SOG 18 6018 SLP093 T10171046 =
2018-01-18 18:00 METAR CWPE 181800Z AUTO 28004KT M02/M05 RMK AO1 SOG 18 6020 SLP099 T10201052 =
2018-01-18 17:00 METAR CWPE 181700Z AUTO 31007KT M02/M05 RMK AO1 19 SOG 18 8020 SLP101 T10241050
                 =
2018-01-18 16:00 METAR CWPE 181600Z AUTO 32007KT M02/M03 RMK AO1 SOG 18 8011 SLP111 T10151027 =
2018-01-18 15:00 METAR CWPE 181500Z AUTO 31005KT M02/M03 RMK AO1 SOG 18 0001 SLP119 T10161026 =
2018-01-18 14:00 METAR CWPE 181400Z AUTO 30004KT M03/M03 RMK AO1 SOG 19 0004 SLP121 T10291031 =
2018-01-18 13:00 METAR CWPE 181300Z AUTO 29004KT M03/M03 RMK AO1 SOG 19 3003 SLP122 T10301031 =
2018-01-18 12:00 METAR CWPE 181200Z AUTO 32002KT M04/M04 RMK AO1 SOG 19 5006 SLP118 T10381037 =
2018-01-18 11:00 METAR CWPE 181100Z AUTO 00000KT M04/M04 RMK AO1 SOG 19 8006 SLP117 T10411041 =
2018-01-18 10:00 METAR CWPE 181000Z AUTO 05001KT M04/M04 RMK AO1 SOG 19 6011 SLP119 T10391040 =
2018-01-18 09:00 METAR CWPE 180900Z AUTO 35003KT M04/M04 RMK AO1 SOG 19 5012 SLP124 T10381038 =
2018-01-18 08:00 METAR CWPE 180800Z AUTO 35002KT M04/M04 RMK AO1 SOG 19 8016 SLP123 T10391039 =
2018-01-18 07:00 METAR CWPE 180700Z AUTO 34004KT M03/M03 RMK AO1 SOG 19 6019 SLP130 T10321032 =
2018-01-18 06:00 METAR CWPE 180600Z AUTO 33005KT M02/M02 RMK AO1 SOG 19 8014 SLP136 T10241023 =
2018-01-18 05:00 METAR CWPE 180500Z AUTO 34004KT M02/M02 RMK AO1 SOG 20 8016 SLP139 T10221020 =
2018-01-18 04:00 METAR CWPE 180400Z AUTO 35003KT M02/M02 RMK AO1 SOG 16 6026 SLP149 T10221020 =
2018-01-18 03:00 METAR CWPE 180300Z AUTO 02004KT M02/M02 RMK AO1 SOG 19 6033 SLP150 T10181016 =
2018-01-18 02:00 METAR CWPE 180200Z AUTO 04007KT M02/M01 RMK AO1 PRESFR SOG 18 8036 SLP155
                 T10171005 =

Support USWX by starting your Amazon purchase here.